< < Back
Terminal Aerodrome Forecast


Current Version              Previous Versions:   1  2  3  4  5  6  7  8  9  

Terminal Aerodrome Forecast

280
FTUS42 KGSP 180905 AAA
TAFHKY
TAF AMD
KHKY 180905Z 1809/1906 31003KT 5SM BR SCT002 OVC100
      TEMPO 1809/1813 1SM -SHRA BR OVC002
     FM181300 02003KT P6SM BKN015
     FM181600 04003KT P6SM BKN060
     FM190400 06004KT P6SM OVC015=



Latest METAR

984
SAUS70 KWBC 181900 RRO
MTRHKY
METAR KHKY 181853Z VRB03KT 10SM SCT036 BKN060 OVC100 23/16 A2998 RMK AO2
SLP132 T02330156


USA.gov is the U.S. government's official web portal to all federal, state and local government web resources and services.